Airways and Terminal Forecast

Significant Meteorological Information

Terminal Aerodrome Forecast

TAF RPLL

031100Z 0312/0418 11007KT 9999 FEW025 TX32/0406Z TN25/0321Z TEMPO 0312/0318 FEW025 BKN100 BECMG 0404/0406 12012KT=

TAF RPVM

031100Z 0312/0418 03011KT 9999 FEW020 BKN300 TEMPO 0312/0318 03015KT TEMPO 0318/0324 8000 -SHRA FEW018CB BKN100=

TAF RPLC

031100Z 0312/0418 22007KT 9999 FEW020 BKN300 TX32/0406Z TN24/0321Z TEMPO 0312/0318 27006KT=

TAF RPLB

031100Z 0312/0412 07010KT 9999 FEW020 BKN300 TX32/0406Z TN24/0321Z TEMPO 0312/0318 08014 FEW020 BKN080=

TAF RPLI

031100Z 0312/0412 08005KT 9999 FEW018 TEMPO 0318/0324 VRB02KT BECMG 0401/0403 33007KT=

TAF RPVP

031100Z 0312/0412 09010KT 9999 FEW019 TEMPO 0318/0324 29008KT -SHRA FEW017CB BKN080=

TAF RPVD

031100Z 0312/0412 34008KT 9999 FEW015 SCT070 TEMPO 0312/0318 -SHRA SCT015 BKN070=

TAF RPMR

031100Z 0312/0412 32005KT 9999 FEW018 BECMG 0400/0402 02009KT TEMPO 0406/0412 13008KT FEW017CB BKN080=

TAF RPMD

031100Z 0312/0412 36007KT 9999 FEW016 SCT260 TEMPO 0406/0412 -SHRA SCT015CB BKN090=

TAF RPMZ

031100Z 0312/0412 08005KT 9999 FEW017 SCT090 TEMPO 0312/0318 VRB02KT FEW016CB BKN090 BECMG 0402/0405 26007KT=

TAF RPVK

031100Z 0312/0412 06011KT 9999 SCT016 SCT070 BKN240 TEMPO 0312/0318 6000 -SHRA SCT016 BKN070=

 

RPLL FORECAST TAKE-OFF CONDITION

TIME

(UTC)

WIND

(dddffKT)

TEMP

(°C)

QNH

(hPa)

TIME

(UTC)

WIND

(dddffKT)

TEMP

(°C)

QNH

(hPa)

1200

11008KT

27.0

1012.0

1600

11007KT

26.0

1012.0

1300

11007KT

27.0

1012.5

1700

11006KT

26.0

1011.5

1400

11007KT

26.5

1012.5

1800

10006KT

26.0

1011.0

1500

11007KT

26.0

1012.5

1900

10006KT

26.0

1011.0

 

ISSUED AT NAIA AMSS-WD/PAGASA-DOST FOR 1100UTC 03 FEBRUARY 2023

PREPARED BY:    MPT

CHECKED BY:      LLAB